Time;durP1;ratioP1;P1;durP2;ratioP2;P2;SDS_P1;SDS_P2;PMS_P1;PMS_P2;Temp;Humidity;BMP_temperature;BMP_pressure;BME280_temperature;BME280_humidity;BME280_pressure;Samples;Min_cycle;Max_cycle;Signal;HPM_P1;HPM_P2
2022/12/31 00:00:59;;;;;;;;;;;11.50;99.90;;;;;;5073987;28;20292;-81
2022/12/31 00:03:25;;;;;;;;;;;11.50;99.90;;;;;;5071446;27;20018;-81
2022/12/31 00:05:50;;;;;;;;;;;11.50;99.90;;;;;;5070446;28;20045;-81
2022/12/31 00:08:16;;;;;;;;;;;11.50;99.90;;;;;;5090480;27;20450;-81
2022/12/31 00:10:41;;;;;;;;;;;11.50;99.90;;;;;;5071482;28;19924;-81
2022/12/31 00:13:10;;;;;;;;;;;11.50;99.90;;;;;;5070458;28;19924;-81
2022/12/31 00:15:37;;;;;;;;;;;11.50;99.90;;;;;;5089657;27;20432;-80
2022/12/31 00:18:02;;;;;;;;;;;11.50;99.90;;;;;;5084764;28;19970;-81
2022/12/31 00:20:28;;;;;;;;;;;11.50;99.90;;;;;;5074209;28;20450;-81
2022/12/31 00:22:53;;;;;;;;;;;11.50;99.90;;;;;;5071091;28;19965;-81
2022/12/31 00:25:19;;;;;;;;;;;11.50;99.90;;;;;;5072467;28;20007;-80
2022/12/31 00:27:44;;;;;;;;;;;11.40;99.90;;;;;;5067913;28;19924;-81
2022/12/31 00:30:10;;;;;;;;;;;11.50;99.90;;;;;;5073217;28;20383;-81
2022/12/31 00:32:36;;;;;;;;;;;11.50;99.90;;;;;;5070598;28;19931;-81
2022/12/31 00:35:01;;;;;;;;;;;11.40;99.90;;;;;;5071921;28;19920;-81
2022/12/31 00:37:27;;;;;;;;;;;11.50;99.90;;;;;;5057505;28;19928;-80
2022/12/31 00:39:52;;;;;;;;;;;11.50;99.90;;;;;;5073978;28;19988;-80
2022/12/31 00:42:18;;;;;;;;;;;11.50;99.90;;;;;;5073037;28;20273;-80
2022/12/31 00:44:44;;;;;;;;;;;11.40;99.90;;;;;;5072957;28;19931;-80
2022/12/31 00:47:09;;;;;;;;;;;11.50;99.90;;;;;;5056469;28;19935;-80
2022/12/31 00:49:35;;;;;;;;;;;11.50;99.90;;;;;;5087382;28;19919;-81
2022/12/31 00:52:00;;;;;;;;;;;11.40;99.90;;;;;;5087179;27;19919;-81
2022/12/31 00:54:26;;;;;;;;;;;11.50;99.90;;;;;;5085630;28;20089;-80
2022/12/31 00:56:52;;;;;;;;;;;11.50;99.90;;;;;;5088149;28;20377;-81
2022/12/31 00:59:17;;;;;;;;;;;11.50;99.90;;;;;;5069654;28;19939;-81
2022/12/31 01:01:43;;;;;;;;;;;11.40;99.90;;;;;;5068946;28;19926;-81
2022/12/31 01:04:10;;;;;;;;;;;11.50;99.90;;;;;;5071981;28;19927;-80
2022/12/31 01:06:36;;;;;;;;;;;11.50;99.90;;;;;;5087989;27;20035;-81
2022/12/31 01:09:02;;;;;;;;;;;11.50;99.90;;;;;;5088132;28;19924;-81
2022/12/31 01:11:28;;;;;;;;;;;11.50;99.90;;;;;;5086668;28;19993;-80
2022/12/31 01:13:53;;;;;;;;;;;11.50;99.90;;;;;;5054818;27;20504;-80
2022/12/31 01:16:21;;;;;;;;;;;11.40;99.90;;;;;;5073317;28;19931;-80
2022/12/31 01:18:46;;;;;;;;;;;11.40;99.90;;;;;;5086219;28;19919;-80
2022/12/31 01:21:12;;;;;;;;;;;11.40;99.90;;;;;;5055856;28;19920;-80
2022/12/31 01:23:38;;;;;;;;;;;11.40;99.90;;;;;;5070525;28;19938;-80
2022/12/31 01:26:05;;;;;;;;;;;11.40;99.90;;;;;;5085566;28;20394;-80
2022/12/31 01:28:31;;;;;;;;;;;11.40;99.90;;;;;;5082503;27;19998;-80
2022/12/31 01:30:57;;;;;;;;;;;11.40;99.90;;;;;;5071262;28;19920;-80
2022/12/31 01:33:22;;;;;;;;;;;11.40;99.90;;;;;;5071864;28;19939;-80
2022/12/31 01:35:48;;;;;;;;;;;11.40;99.90;;;;;;5070345;28;19951;-80
2022/12/31 01:38:14;;;;;;;;;;;11.40;99.90;;;;;;5090502;28;19928;-80
2022/12/31 01:40:39;;;;;;;;;;;11.40;99.90;;;;;;5071411;28;20490;-80
2022/12/31 01:43:16;;;;;;;;;;;11.40;99.90;;;;;;5071582;28;19920;-80
2022/12/31 01:45:42;;;;;;;;;;;11.30;99.90;;;;;;5069688;28;20356;-80
2022/12/31 01:48:10;;;;;;;;;;;11.30;99.90;;;;;;5070582;28;19928;-80
2022/12/31 01:50:38;;;;;;;;;;;11.30;99.90;;;;;;5072040;28;19920;-80
2022/12/31 01:53:06;;;;;;;;;;;11.30;99.90;;;;;;5086709;28;19930;-80
2022/12/31 01:55:33;;;;;;;;;;;11.30;99.90;;;;;;5071728;28;19977;-80
2022/12/31 01:58:10;;;;;;;;;;;11.30;99.90;;;;;;5067696;28;20235;-80
2022/12/31 02:00:36;;;;;;;;;;;11.30;99.90;;;;;;5071082;28;19967;-80
2022/12/31 02:03:04;;;;;;;;;;;11.30;99.90;;;;;;5086830;27;20458;-80
2022/12/31 02:05:32;;;;;;;;;;;11.20;99.90;;;;;;5087793;28;19927;-80
2022/12/31 02:07:57;;;;;;;;;;;11.30;99.90;;;;;;5084213;27;19920;-80
2022/12/31 02:10:23;;;;;;;;;;;11.20;99.90;;;;;;5069737;28;19932;-80
2022/12/31 02:12:49;;;;;;;;;;;11.20;99.90;;;;;;5050165;28;19924;-80
2022/12/31 02:15:15;;;;;;;;;;;11.20;99.90;;;;;;5106346;27;20279;-79
2022/12/31 02:17:41;;;;;;;;;;;11.20;99.90;;;;;;5067569;28;20274;-80
2022/12/31 02:20:15;;;;;;;;;;;11.10;99.90;;;;;;5067232;28;19980;-80
2022/12/31 02:22:43;;;;;;;;;;;11.10;99.90;;;;;;5087689;28;19927;-80
2022/12/31 02:25:09;;;;;;;;;;;11.10;99.90;;;;;;5088833;28;20330;-80
2022/12/31 02:27:34;;;;;;;;;;;11.10;99.90;;;;;;5070726;28;19977;-80
2022/12/31 02:30:11;;;;;;;;;;;11.10;99.90;;;;;;5064866;28;19920;-80
2022/12/31 02:32:49;;;;;;;;;;;11.00;99.90;;;;;;5085023;28;19927;-80
2022/12/31 02:35:35;;;;;;;;;;;11.10;99.90;;;;;;5072570;28;19934;-80
2022/12/31 02:38:06;;;;;;;;;;;11.00;99.90;;;;;;5067617;28;19920;-80
2022/12/31 02:40:33;;;;;;;;;;;11.00;99.90;;;;;;5087786;28;19920;-80
2022/12/31 02:42:59;;;;;;;;;;;10.90;99.90;;;;;;5070836;28;19924;-80
2022/12/31 02:45:27;;;;;;;;;;;10.90;99.90;;;;;;5086493;28;19935;-80
2022/12/31 02:48:02;;;;;;;;;;;10.90;99.90;;;;;;5086894;28;20017;-80
2022/12/31 02:50:54;;;;;;;;;;;10.90;99.90;;;;;;5085800;28;19928;-79
2022/12/31 02:53:28;;;;;;;;;;;10.90;99.90;;;;;;5086304;28;19924;-80
2022/12/31 02:55:57;;;;;;;;;;;10.80;99.90;;;;;;5068654;28;19932;-80
2022/12/31 03:02:12;;;;;;;;;;;10.80;99.90;;;;;;5069839;28;19931;-79
2022/12/31 03:04:30;;;;;;;;;;;10.70;99.90;;;;;;5073010;28;19920;-79
2022/12/31 03:06:39;;;;;;;;;;;10.70;99.90;;;;;;5071486;28;19932;-79
2022/12/31 03:09:13;;;;;;;;;;;10.70;99.90;;;;;;5071783;28;20333;-80
2022/12/31 03:14:43;;;;;;;;;;;10.60;99.90;;;;;;5027578;28;20558;-80
2022/12/31 03:17:11;;;;;;;;;;;10.60;99.90;;;;;;5041606;28;20429;-80
2022/12/31 03:22:27;;;;;;;;;;;10.60;99.90;;;;;;5074606;28;20277;-79
2022/12/31 03:27:38;;;;;;;;;;;10.60;99.90;;;;;;5090555;27;19919;-80
2022/12/31 03:30:04;;;;;;;;;;;10.60;99.90;;;;;;5070487;28;19924;-80
2022/12/31 03:32:30;;;;;;;;;;;10.60;99.90;;;;;;5091050;28;19965;-80
2022/12/31 03:34:56;;;;;;;;;;;10.50;99.90;;;;;;5091411;28;19928;-80
2022/12/31 03:37:21;;;;;;;;;;;10.60;99.90;;;;;;5072633;28;20385;-80
2022/12/31 03:39:47;;;;;;;;;;;10.60;99.90;;;;;;5096839;27;19928;-80
2022/12/31 03:42:12;;;;;;;;;;;10.60;99.90;;;;;;5090892;27;20002;-80
2022/12/31 03:44:38;;;;;;;;;;;10.60;99.90;;;;;;5108991;28;19923;-80
2022/12/31 03:47:03;;;;;;;;;;;10.60;99.90;;;;;;5076507;28;20006;-80
2022/12/31 03:49:29;;;;;;;;;;;10.50;99.90;;;;;;5077539;28;20872;-80
2022/12/31 03:51:54;;;;;;;;;;;10.50;99.90;;;;;;5093844;28;20372;-80
2022/12/31 03:54:20;;;;;;;;;;;10.50;99.90;;;;;;5092596;27;19939;-80
2022/12/31 03:56:46;;;;;;;;;;;10.60;99.90;;;;;;5071956;28;19927;-80
2022/12/31 03:59:11;;;;;;;;;;;10.60;99.90;;;;;;5076986;28;19920;-80
2022/12/31 04:01:37;;;;;;;;;;;10.60;99.90;;;;;;5083243;28;20037;-80
2022/12/31 04:04:02;;;;;;;;;;;10.60;99.90;;;;;;5114175;28;19930;-80
2022/12/31 04:06:28;;;;;;;;;;;10.70;99.90;;;;;;5095115;28;19931;-81
2022/12/31 04:08:53;;;;;;;;;;;10.60;99.90;;;;;;5075459;28;20016;-81
2022/12/31 04:11:19;;;;;;;;;;;10.60;99.90;;;;;;5075020;27;20015;-81
2022/12/31 04:13:45;;;;;;;;;;;10.60;99.90;;;;;;5076302;28;19932;-80
2022/12/31 04:16:10;;;;;;;;;;;10.60;99.90;;;;;;5089123;28;20036;-80
2022/12/31 04:18:36;;;;;;;;;;;10.60;99.90;;;;;;5073888;28;19920;-80
2022/12/31 04:21:02;;;;;;;;;;;10.60;99.90;;;;;;5071852;28;19994;-81
2022/12/31 04:23:27;;;;;;;;;;;10.70;99.90;;;;;;5092478;28;19919;-80
2022/12/31 04:25:53;;;;;;;;;;;10.70;99.90;;;;;;5054341;28;19926;-80
2022/12/31 04:28:18;;;;;;;;;;;10.70;99.90;;;;;;5077812;28;19923;-80
2022/12/31 04:30:44;;;;;;;;;;;10.70;99.90;;;;;;5092998;28;19924;-80
2022/12/31 04:33:10;;;;;;;;;;;10.70;99.90;;;;;;5073950;27;19931;-80
2022/12/31 04:35:35;;;;;;;;;;;10.70;99.90;;;;;;5074800;28;20392;-80
2022/12/31 04:38:01;;;;;;;;;;;10.70;99.90;;;;;;5057010;28;20002;-80
2022/12/31 04:40:26;;;;;;;;;;;10.70;99.90;;;;;;5089045;28;20232;-80
2022/12/31 04:42:52;;;;;;;;;;;10.70;99.90;;;;;;5093434;28;19930;-80
2022/12/31 04:45:17;;;;;;;;;;;10.70;99.90;;;;;;5117739;27;19931;-79
2022/12/31 04:47:43;;;;;;;;;;;10.70;99.90;;;;;;5099270;28;19922;-79
2022/12/31 04:50:08;;;;;;;;;;;10.70;99.90;;;;;;5097213;28;19912;-78
2022/12/31 04:52:34;;;;;;;;;;;10.60;99.90;;;;;;5069478;28;19937;-79
2022/12/31 04:54:59;;;;;;;;;;;10.60;99.90;;;;;;5071552;28;19927;-79
2022/12/31 04:57:25;;;;;;;;;;;10.50;99.90;;;;;;5056672;28;19961;-80
2022/12/31 04:59:51;;;;;;;;;;;10.50;99.90;;;;;;5073834;28;20328;-79
2022/12/31 05:02:16;;;;;;;;;;;10.50;99.90;;;;;;5091829;28;19919;-79
2022/12/31 05:04:42;;;;;;;;;;;10.50;99.90;;;;;;5087304;28;19920;-80
2022/12/31 05:07:07;;;;;;;;;;;10.50;99.90;;;;;;5069169;28;19962;-80
2022/12/31 05:09:33;;;;;;;;;;;10.50;99.90;;;;;;5090873;28;19963;-79
2022/12/31 05:11:59;;;;;;;;;;;10.50;99.90;;;;;;5073019;28;19919;-80
2022/12/31 05:14:24;;;;;;;;;;;10.50;99.90;;;;;;5087534;27;20535;-80
2022/12/31 05:16:50;;;;;;;;;;;10.40;99.90;;;;;;5088816;28;19919;-80
2022/12/31 05:19:16;;;;;;;;;;;10.50;99.90;;;;;;5071494;28;20818;-80
2022/12/31 05:21:42;;;;;;;;;;;10.40;99.90;;;;;;5067630;28;19924;-80
2022/12/31 05:24:07;;;;;;;;;;;10.40;99.90;;;;;;5086100;28;20373;-80
2022/12/31 05:26:33;;;;;;;;;;;10.40;99.90;;;;;;5047656;28;20004;-79
2022/12/31 05:28:59;;;;;;;;;;;10.40;99.90;;;;;;5072680;28;20308;-79
2022/12/31 05:31:25;;;;;;;;;;;10.40;99.90;;;;;;5072621;28;20001;-79
2022/12/31 05:33:51;;;;;;;;;;;10.40;99.90;;;;;;5064968;28;19928;-79
2022/12/31 05:36:17;;;;;;;;;;;10.40;99.90;;;;;;5087799;28;19965;-79
2022/12/31 05:38:43;;;;;;;;;;;10.30;99.90;;;;;;5071719;28;19979;-79
2022/12/31 05:41:09;;;;;;;;;;;10.40;99.90;;;;;;5071596;28;20300;-80
2022/12/31 05:43:35;;;;;;;;;;;10.40;99.90;;;;;;5086550;28;19928;-79
2022/12/31 05:46:01;;;;;;;;;;;10.40;99.90;;;;;;5087893;28;19924;-79
2022/12/31 05:48:27;;;;;;;;;;;10.40;99.90;;;;;;5085943;28;19920;-79
2022/12/31 05:50:52;;;;;;;;;;;10.40;99.90;;;;;;5087981;28;19941;-79
2022/12/31 05:53:18;;;;;;;;;;;10.40;99.90;;;;;;5056427;28;20209;-79
2022/12/31 05:55:44;;;;;;;;;;;10.40;99.90;;;;;;5068437;28;20455;-79
2022/12/31 05:58:10;;;;;;;;;;;10.50;99.90;;;;;;5071539;28;19920;-79
2022/12/31 06:00:36;;;;;;;;;;;10.50;99.90;;;;;;5072413;28;20368;-80
2022/12/31 06:03:01;;;;;;;;;;;10.50;99.90;;;;;;5054099;28;19920;-80
2022/12/31 06:05:27;;;;;;;;;;;10.50;99.90;;;;;;5069789;28;19935;-79
2022/12/31 06:07:52;;;;;;;;;;;10.50;99.90;;;;;;5086661;28;20114;-80
2022/12/31 06:10:18;;;;;;;;;;;10.60;99.90;;;;;;5053209;28;19986;-80
2022/12/31 06:12:44;;;;;;;;;;;10.60;99.90;;;;;;5069919;28;19920;-80
2022/12/31 06:15:09;;;;;;;;;;;10.60;99.90;;;;;;5056835;28;20472;-80
2022/12/31 06:17:35;;;;;;;;;;;10.60;99.90;;;;;;5088911;28;19928;-80
2022/12/31 06:20:00;;;;;;;;;;;10.60;99.90;;;;;;5088177;27;20385;-80
2022/12/31 06:22:26;;;;;;;;;;;10.60;99.90;;;;;;5083397;28;19963;-79
2022/12/31 06:24:51;;;;;;;;;;;10.60;99.90;;;;;;5070047;28;19920;-80
2022/12/31 06:27:17;;;;;;;;;;;10.60;99.90;;;;;;5071940;28;19945;-80
2022/12/31 06:29:44;;;;;;;;;;;10.60;99.90;;;;;;5053045;28;19920;-79
2022/12/31 06:32:10;;;;;;;;;;;10.60;99.90;;;;;;5087499;28;19935;-79
2022/12/31 06:34:35;;;;;;;;;;;10.60;99.90;;;;;;5071338;28;19930;-79
2022/12/31 06:37:01;;;;;;;;;;;10.60;99.90;;;;;;5088902;28;19935;-79
2022/12/31 06:39:27;;;;;;;;;;;10.60;99.90;;;;;;5087294;28;20441;-79
2022/12/31 06:41:53;;;;;;;;;;;10.50;99.90;;;;;;5072592;28;20415;-79
2022/12/31 06:44:21;;;;;;;;;;;10.50;99.90;;;;;;5081488;28;19920;-80
2022/12/31 06:46:47;;;;;;;;;;;10.60;99.90;;;;;;5054946;28;19920;-80
2022/12/31 06:49:13;;;;;;;;;;;10.50;99.90;;;;;;5069766;28;19924;-80
2022/12/31 06:51:38;;;;;;;;;;;10.60;99.90;;;;;;5071517;28;19920;-80
2022/12/31 06:54:04;;;;;;;;;;;10.50;99.90;;;;;;5087977;28;19940;-80
2022/12/31 06:56:30;;;;;;;;;;;10.50;99.90;;;;;;5060843;28;20075;-80
2022/12/31 06:58:56;;;;;;;;;;;10.60;99.90;;;;;;5070222;28;19927;-80
2022/12/31 07:01:43;;;;;;;;;;;10.50;99.90;;;;;;5086950;28;19920;-79
2022/12/31 07:04:27;;;;;;;;;;;10.50;99.90;;;;;;5087454;28;19931;-79
2022/12/31 07:07:00;;;;;;;;;;;10.50;99.90;;;;;;5086007;28;19926;-79
2022/12/31 07:09:38;;;;;;;;;;;10.50;99.90;;;;;;5083915;28;19920;-80
2022/12/31 07:12:10;;;;;;;;;;;10.50;99.90;;;;;;5103670;28;19970;-80
2022/12/31 07:14:45;;;;;;;;;;;10.50;99.90;;;;;;5067856;28;20006;-79
2022/12/31 07:17:33;;;;;;;;;;;10.50;99.90;;;;;;5086378;28;20380;-80
2022/12/31 07:20:06;;;;;;;;;;;10.50;99.90;;;;;;5070303;28;19927;-79
2022/12/31 07:22:32;;;;;;;;;;;10.50;99.90;;;;;;5065812;28;19935;-80
2022/12/31 07:24:57;;;;;;;;;;;10.50;99.90;;;;;;5070413;28;19920;-79
2022/12/31 07:27:43;;;;;;;;;;;10.40;99.90;;;;;;5052566;28;19923;-80
2022/12/31 07:30:35;;;;;;;;;;;10.50;99.90;;;;;;5083999;28;20198;-81
2022/12/31 07:33:10;;;;;;;;;;;10.50;99.90;;;;;;5028862;28;19931;-80
2022/12/31 07:35:54;;;;;;;;;;;10.50;99.90;;;;;;5071078;28;20384;-81
2022/12/31 07:38:26;;;;;;;;;;;10.50;99.90;;;;;;5085856;28;19924;-80
2022/12/31 07:40:51;;;;;;;;;;;10.50;99.90;;;;;;5087002;28;20380;-81
2022/12/31 07:43:36;;;;;;;;;;;10.60;99.90;;;;;;5070758;28;19939;-80
2022/12/31 07:46:01;;;;;;;;;;;10.60;99.90;;;;;;5083110;28;19920;-80
2022/12/31 07:48:27;;;;;;;;;;;10.60;99.90;;;;;;5085845;28;19931;-81
2022/12/31 07:50:54;;;;;;;;;;;10.60;99.90;;;;;;5068464;28;19989;-81
2022/12/31 07:53:21;;;;;;;;;;;10.70;99.90;;;;;;5076806;28;19931;-80
2022/12/31 07:55:48;;;;;;;;;;;10.70;99.90;;;;;;5085495;28;20677;-80
2022/12/31 07:58:31;;;;;;;;;;;10.80;99.90;;;;;;5069659;28;20014;-80
2022/12/31 08:00:57;;;;;;;;;;;10.80;99.90;;;;;;5081604;28;20388;-80
2022/12/31 08:03:25;;;;;;;;;;;10.80;99.90;;;;;;5068034;28;19928;-80
2022/12/31 08:05:59;;;;;;;;;;;10.80;99.90;;;;;;5068352;28;19943;-79
2022/12/31 08:08:34;;;;;;;;;;;10.80;99.90;;;;;;5064877;28;20752;-83
2022/12/31 08:10:59;;;;;;;;;;;10.80;99.90;;;;;;5085394;27;19928;-83
2022/12/31 08:13:25;;;;;;;;;;;10.80;99.90;;;;;;5093086;28;19973;-83
2022/12/31 08:15:51;;;;;;;;;;;10.90;99.90;;;;;;5072020;28;20365;-82
2022/12/31 08:18:16;;;;;;;;;;;10.90;99.90;;;;;;5072942;28;19927;-81
2022/12/31 08:20:54;;;;;;;;;;;10.90;99.90;;;;;;5088232;28;19927;-81
2022/12/31 08:23:23;;;;;;;;;;;10.90;99.90;;;;;;5085340;28;19946;-82
2022/12/31 08:25:58;;;;;;;;;;;11.00;99.90;;;;;;5091213;28;20449;-82
2022/12/31 08:28:31;;;;;;;;;;;11.00;99.90;;;;;;5077849;28;19959;-81
2022/12/31 08:30:56;;;;;;;;;;;11.10;99.90;;;;;;5067074;28;19927;-83
2022/12/31 08:33:33;;;;;;;;;;;11.10;99.90;;;;;;5067503;28;19924;-83
2022/12/31 08:36:08;;;;;;;;;;;11.20;99.90;;;;;;5087036;28;19920;-83
2022/12/31 08:38:56;;;;;;;;;;;11.20;99.90;;;;;;5064571;28;19927;-82
2022/12/31 08:41:32;;;;;;;;;;;11.30;99.90;;;;;;5088206;28;19920;-82
2022/12/31 08:43:57;;;;;;;;;;;11.40;99.90;;;;;;5069186;28;19967;-83
2022/12/31 08:46:26;;;;;;;;;;;11.40;99.90;;;;;;5087215;28;20416;-83
2022/12/31 08:48:52;;;;;;;;;;;11.40;99.90;;;;;;5072525;28;20085;-83
2022/12/31 08:51:19;;;;;;;;;;;11.50;99.90;;;;;;5067771;28;20006;-83
2022/12/31 08:53:44;;;;;;;;;;;11.60;99.90;;;;;;5069641;28;19958;-83
2022/12/31 08:56:19;;;;;;;;;;;11.60;99.90;;;;;;5070635;28;20377;-83
2022/12/31 08:58:48;;;;;;;;;;;11.60;99.90;;;;;;5085246;28;19978;-82
2022/12/31 09:01:17;;;;;;;;;;;11.70;99.90;;;;;;5064780;28;20005;-83
2022/12/31 09:03:43;;;;;;;;;;;11.70;99.90;;;;;;5085999;28;19935;-83
2022/12/31 09:06:25;;;;;;;;;;;11.60;99.90;;;;;;5082534;28;19920;-83
2022/12/31 09:09:05;;;;;;;;;;;11.80;99.90;;;;;;5083047;28;19927;-83
2022/12/31 09:11:53;;;;;;;;;;;11.90;99.90;;;;;;5079102;28;20011;-82
2022/12/31 09:14:33;;;;;;;;;;;11.90;99.90;;;;;;5086545;28;19924;-82
2022/12/31 09:17:08;;;;;;;;;;;12.00;99.90;;;;;;5065367;28;19920;-86
2022/12/31 09:19:33;;;;;;;;;;;12.00;99.90;;;;;;5085147;28;19964;-82
2022/12/31 09:21:59;;;;;;;;;;;12.00;99.90;;;;;;5063280;28;20584;-81
2022/12/31 09:24:25;;;;;;;;;;;12.10;99.90;;;;;;5085871;28;19930;-82
2022/12/31 09:26:56;;;;;;;;;;;12.10;99.90;;;;;;5064373;28;20003;-81
2022/12/31 09:29:41;;;;;;;;;;;12.10;99.90;;;;;;5083896;28;19924;-83
2022/12/31 09:32:16;;;;;;;;;;;12.10;99.90;;;;;;5085349;28;20018;-81
2022/12/31 09:34:44;;;;;;;;;;;12.20;99.90;;;;;;5083355;28;19924;-81
2022/12/31 09:37:15;;;;;;;;;;;12.20;99.90;;;;;;5081461;28;19931;-83
2022/12/31 09:39:45;;;;;;;;;;;12.20;99.90;;;;;;5082210;28;19943;-80
2022/12/31 09:42:30;;;;;;;;;;;12.20;99.90;;;;;;5067318;28;20289;-80
2022/12/31 09:45:05;;;;;;;;;;;12.20;99.90;;;;;;5059727;28;19928;-79
2022/12/31 09:47:39;;;;;;;;;;;12.30;99.90;;;;;;5080155;28;20022;-78
2022/12/31 09:50:09;;;;;;;;;;;12.30;99.90;;;;;;5081526;28;19935;-79
2022/12/31 09:52:38;;;;;;;;;;;12.30;99.90;;;;;;5083161;28;20439;-79
2022/12/31 09:55:22;;;;;;;;;;;12.30;99.90;;;;;;5085213;28;19928;-79
2022/12/31 09:58:00;;;;;;;;;;;12.40;99.90;;;;;;5084072;28;19923;-78
2022/12/31 10:00:29;;;;;;;;;;;12.30;99.90;;;;;;5067711;28;19928;-79
2022/12/31 10:02:58;;;;;;;;;;;12.40;99.90;;;;;;5082700;28;20003;-79
2022/12/31 10:05:44;;;;;;;;;;;12.40;99.90;;;;;;5084933;28;19928;-81
2022/12/31 10:08:22;;;;;;;;;;;12.40;99.90;;;;;;5067775;28;20389;-81
2022/12/31 10:10:53;;;;;;;;;;;12.40;99.90;;;;;;5084663;28;20381;-81
2022/12/31 10:13:27;;;;;;;;;;;12.50;99.90;;;;;;5058919;28;20652;-83
2022/12/31 10:15:53;;;;;;;;;;;12.50;99.90;;;;;;5083080;28;19970;-88
2022/12/31 10:18:22;;;;;;;;;;;12.50;99.90;;;;;;5079841;28;19993;-79
2022/12/31 10:21:05;;;;;;;;;;;12.50;99.90;;;;;;5079619;28;19931;-81
2022/12/31 10:23:51;;;;;;;;;;;12.50;99.90;;;;;;5082616;28;20279;-80
2022/12/31 10:26:35;;;;;;;;;;;12.60;99.90;;;;;;5081040;28;20003;-81
2022/12/31 10:29:21;;;;;;;;;;;12.60;99.90;;;;;;5062840;28;20391;-80
2022/12/31 10:32:06;;;;;;;;;;;12.60;99.90;;;;;;5082011;28;19920;-79
2022/12/31 10:34:58;;;;;;;;;;;12.70;99.90;;;;;;5081093;28;19938;-82
2022/12/31 10:37:44;;;;;;;;;;;12.60;99.90;;;;;;5062016;28;19943;-81
2022/12/31 10:40:40;;;;;;;;;;;12.70;99.90;;;;;;5078871;28;19920;-81
2022/12/31 10:43:05;;;;;;;;;;;12.70;99.90;;;;;;5098640;28;19927;-78
2022/12/31 10:45:50;;;;;;;;;;;12.80;99.90;;;;;;5082879;28;19920;-78
2022/12/31 10:48:34;;;;;;;;;;;12.80;99.90;;;;;;5080588;28;19928;-80
2022/12/31 10:51:00;;;;;;;;;;;12.80;99.90;;;;;;5098324;28;19920;-90
2022/12/31 10:53:28;;;;;;;;;;;12.80;99.90;;;;;;5063096;28;19932;-90
2022/12/31 10:55:54;;;;;;;;;;;12.80;99.90;;;;;;5079220;28;19981;-89
2022/12/31 10:58:38;;;;;;;;;;;12.80;99.90;;;;;;5082241;28;19924;-90
2022/12/31 11:01:16;;;;;;;;;;;12.80;99.90;;;;;;5059795;28;19921;-86
2022/12/31 11:04:02;;;;;;;;;;;12.90;99.90;;;;;;5082785;28;19920;-86
2022/12/31 11:06:46;;;;;;;;;;;12.80;99.90;;;;;;5080593;28;19924;-87
2022/12/31 11:09:27;;;;;;;;;;;12.90;99.90;;;;;;5082072;28;19924;-86
2022/12/31 11:11:53;;;;;;;;;;;12.90;99.90;;;;;;5063995;28;19924;-84
2022/12/31 11:14:18;;;;;;;;;;;12.90;99.90;;;;;;5067105;28;19924;-80
2022/12/31 11:16:47;;;;;;;;;;;12.80;99.90;;;;;;5084423;28;19919;-81
2022/12/31 11:19:23;;;;;;;;;;;12.90;99.90;;;;;;5064492;28;19928;-81
2022/12/31 11:22:09;;;;;;;;;;;12.80;99.90;;;;;;5075743;28;19927;-88
2022/12/31 11:24:53;;;;;;;;;;;12.80;99.90;;;;;;5064344;28;20444;-87
2022/12/31 11:27:22;;;;;;;;;;;12.80;99.90;;;;;;5075375;28;20449;-84
2022/12/31 11:30:06;;;;;;;;;;;12.80;99.90;;;;;;5058495;28;19975;-85
2022/12/31 11:32:32;;;;;;;;;;;12.80;99.90;;;;;;5079321;28;19962;-85
2022/12/31 11:35:16;;;;;;;;;;;12.90;99.90;;;;;;5061812;28;20024;-85
2022/12/31 11:37:49;;;;;;;;;;;12.90;99.90;;;;;;5080631;28;19920;-83
2022/12/31 11:40:15;;;;;;;;;;;12.90;99.90;;;;;;5063436;28;19924;-86
2022/12/31 11:42:40;;;;;;;;;;;12.90;99.90;;;;;;5077581;28;19928;-86
2022/12/31 11:45:09;;;;;;;;;;;13.00;99.90;;;;;;5078189;28;21522;-85
2022/12/31 11:47:54;;;;;;;;;;;13.00;99.90;;;;;;5069390;28;19934;-86
2022/12/31 11:50:35;;;;;;;;;;;13.00;99.90;;;;;;5067621;28;19949;-86
2022/12/31 11:53:29;;;;;;;;;;;13.00;99.90;;;;;;5067238;28;20009;-86
2022/12/31 11:56:01;;;;;;;;;;;13.10;99.90;;;;;;4997847;28;19925;-86
2022/12/31 11:58:27;;;;;;;;;;;13.10;99.90;;;;;;5065604;28;19920;-86
2022/12/31 12:00:55;;;;;;;;;;;13.10;99.90;;;;;;5068518;28;19927;-88
2022/12/31 12:03:22;;;;;;;;;;;13.20;99.90;;;;;;5085755;28;20297;-87
2022/12/31 12:05:47;;;;;;;;;;;13.20;99.90;;;;;;5066284;28;19920;-87
2022/12/31 12:08:14;;;;;;;;;;;13.20;99.90;;;;;;5101767;28;19929;-84
2022/12/31 12:10:47;;;;;;;;;;;13.20;99.90;;;;;;5064619;28;19936;-82
2022/12/31 12:13:16;;;;;;;;;;;13.30;99.90;;;;;;5101576;28;20018;-83
2022/12/31 12:15:44;;;;;;;;;;;13.40;99.90;;;;;;5063391;28;20261;-85
2022/12/31 12:18:17;;;;;;;;;;;13.40;99.90;;;;;;5102564;28;19920;-84
2022/12/31 12:20:45;;;;;;;;;;;13.40;99.90;;;;;;5082136;28;20389;-83
2022/12/31 12:23:15;;;;;;;;;;;13.40;99.90;;;;;;5080828;28;19920;-84
2022/12/31 12:25:42;;;;;;;;;;;13.40;99.90;;;;;;5063045;28;20015;-84
2022/12/31 12:28:17;;;;;;;;;;;13.40;99.90;;;;;;5081433;28;19931;-83
2022/12/31 12:30:43;;;;;;;;;;;13.40;99.90;;;;;;5081325;28;20305;-84
2022/12/31 12:33:17;;;;;;;;;;;13.40;99.90;;;;;;5064218;28;19932;-83
2022/12/31 12:35:42;;;;;;;;;;;13.40;99.90;;;;;;5072044;28;20281;-82
2022/12/31 12:38:14;;;;;;;;;;;13.40;99.90;;;;;;5084765;28;19966;-83
2022/12/31 12:40:39;;;;;;;;;;;13.40;99.90;;;;;;5078992;28;19920;-91
2022/12/31 12:43:18;;;;;;;;;;;13.40;99.90;;;;;;5066622;28;20320;-83
2022/12/31 12:45:47;;;;;;;;;;;13.40;99.90;;;;;;5104865;27;19920;-83
2022/12/31 12:48:24;;;;;;;;;;;13.30;99.90;;;;;;5059627;28;19931;-86
2022/12/31 12:50:50;;;;;;;;;;;13.30;99.90;;;;;;5066927;28;19920;-84
2022/12/31 12:53:15;;;;;;;;;;;13.20;99.90;;;;;;5060180;28;20377;-89
2022/12/31 12:55:48;;;;;;;;;;;13.20;99.90;;;;;;5060236;28;19931;-86
2022/12/31 12:58:20;;;;;;;;;;;13.20;99.90;;;;;;5079370;28;20374;-78
2022/12/31 13:00:57;;;;;;;;;;;13.10;99.90;;;;;;5084842;28;19924;-78
2022/12/31 13:03:38;;;;;;;;;;;13.10;99.90;;;;;;5086719;28;19946;-78
2022/12/31 13:06:10;;;;;;;;;;;13.10;99.90;;;;;;5068935;28;19920;-78
2022/12/31 13:08:48;;;;;;;;;;;13.10;99.90;;;;;;5079159;28;19921;-78
2022/12/31 13:11:32;;;;;;;;;;;13.10;99.90;;;;;;5072185;28;19951;-83
2022/12/31 13:14:16;;;;;;;;;;;13.10;99.90;;;;;;5077308;28;19924;-82
2022/12/31 13:16:59;;;;;;;;;;;13.10;99.90;;;;;;5070560;28;20331;-81
2022/12/31 13:19:27;;;;;;;;;;;13.10;99.90;;;;;;5070254;28;20515;-82
2022/12/31 13:21:56;;;;;;;;;;;13.10;99.90;;;;;;5082585;28;19932;-82
2022/12/31 13:24:41;;;;;;;;;;;13.10;99.90;;;;;;5069179;28;19927;-83
2022/12/31 13:27:07;;;;;;;;;;;13.10;99.90;;;;;;5067188;28;19920;-83
2022/12/31 13:29:33;;;;;;;;;;;13.10;99.90;;;;;;5065995;28;20365;-82
2022/12/31 13:32:01;;;;;;;;;;;13.10;99.90;;;;;;5065191;28;19920;-83
2022/12/31 13:34:32;;;;;;;;;;;13.00;99.90;;;;;;5086892;28;19932;-83
2022/12/31 13:37:02;;;;;;;;;;;13.00;99.90;;;;;;5083214;28;19935;-83
2022/12/31 13:39:29;;;;;;;;;;;13.00;99.90;;;;;;5084359;28;19928;-83
2022/12/31 13:42:01;;;;;;;;;;;13.00;99.90;;;;;;5087278;28;19952;-82
2022/12/31 13:44:34;;;;;;;;;;;13.00;99.90;;;;;;5066317;28;19966;-83
2022/12/31 13:47:02;;;;;;;;;;;12.90;99.90;;;;;;5069930;28;19928;-83
2022/12/31 13:49:36;;;;;;;;;;;12.90;99.90;;;;;;5067390;28;19967;-84
2022/12/31 13:52:10;;;;;;;;;;;12.90;99.90;;;;;;5066042;28;19920;-87
2022/12/31 13:54:45;;;;;;;;;;;12.90;99.90;;;;;;5069301;28;19924;-83
2022/12/31 13:57:17;;;;;;;;;;;12.90;99.90;;;;;;5065243;28;19939;-81
2022/12/31 13:59:44;;;;;;;;;;;13.00;99.90;;;;;;5083959;28;20011;-82
2022/12/31 14:02:16;;;;;;;;;;;13.10;99.90;;;;;;5102475;27;19920;-83
2022/12/31 14:04:47;;;;;;;;;;;13.20;99.90;;;;;;5069451;28;19928;-82
2022/12/31 14:07:16;;;;;;;;;;;13.20;99.90;;;;;;5067779;28;19982;-84
2022/12/31 14:09:41;;;;;;;;;;;13.40;99.90;;;;;;5066981;28;19947;-82
2022/12/31 14:12:07;;;;;;;;;;;13.40;99.90;;;;;;5046957;28;19928;-83
2022/12/31 14:14:50;;;;;;;;;;;13.40;99.90;;;;;;5067433;28;19924;-83
2022/12/31 14:17:20;;;;;;;;;;;13.40;99.90;;;;;;5083034;28;19924;-81
2022/12/31 14:19:56;;;;;;;;;;;13.60;99.90;;;;;;5083955;28;19935;-81
2022/12/31 14:22:48;;;;;;;;;;;13.60;99.90;;;;;;5086517;28;19965;-80
2022/12/31 14:25:34;;;;;;;;;;;13.60;99.90;;;;;;5053032;28;20006;-80
2022/12/31 14:28:01;;;;;;;;;;;13.60;99.90;;;;;;5101553;28;19935;-83
2022/12/31 14:30:29;;;;;;;;;;;13.50;99.90;;;;;;5079189;28;19920;-82
2022/12/31 14:33:14;;;;;;;;;;;13.50;99.90;;;;;;5073393;28;19924;-83
2022/12/31 14:35:51;;;;;;;;;;;13.40;99.90;;;;;;5084319;28;19928;-82
2022/12/31 14:38:26;;;;;;;;;;;13.40;99.90;;;;;;5064965;28;20416;-82
2022/12/31 14:40:57;;;;;;;;;;;13.40;99.90;;;;;;5064299;28;19974;-82
2022/12/31 14:43:36;;;;;;;;;;;13.40;99.90;;;;;;5085520;28;20495;-83
2022/12/31 14:46:19;;;;;;;;;;;13.30;99.90;;;;;;5087881;28;20321;-83